Time,TemperatureF,DewpointF,PressureIn,WindDirection,WindDirectionDegrees,WindSpeedMPH,WindSpeedGustMPH,Humidity,HourlyPrecipIn,Conditions,Clouds,dailyrainin,SoftwareType,DateUTC
2013-07-12 00:05:00,65.9,59.6,29.97,NW,321,0.0,5.0,80,0.00,,,0.00,Wunderground v.1.15,2013-07-12 04:05:00,
2013-07-12 00:10:00,65.8,59.1,29.97,NW,321,0.0,5.0,79,0.00,,,0.00,Wunderground v.1.15,2013-07-12 04:10:00,
2013-07-12 00:15:00,65.8,59.5,29.97,NW,321,0.0,5.0,80,0.00,,,0.00,Wunderground v.1.15,2013-07-12 04:15:00,
2013-07-12 00:20:00,65.7,59.7,29.97,NW,321,0.0,5.0,81,0.00,,,0.00,Wunderground v.1.15,2013-07-12 04:20:00,
2013-07-12 00:25:00,65.6,59.6,29.97,NW,321,0.0,5.0,81,0.00,,,0.00,Wunderground v.1.15,2013-07-12 04:25:00,
2013-07-12 00:30:00,65.5,59.9,29.97,NW,321,0.0,5.0,82,0.00,,,0.00,Wunderground v.1.15,2013-07-12 04:30:00,
2013-07-12 00:35:00,65.4,59.8,29.97,NW,321,0.0,5.0,82,0.00,,,0.00,Wunderground v.1.15,2013-07-12 04:35:00,
2013-07-12 00:40:00,65.4,59.8,29.97,NW,321,0.0,5.0,82,0.00,,,0.00,Wunderground v.1.15,2013-07-12 04:40:00,
2013-07-12 00:45:00,65.3,59.7,29.97,NW,321,0.0,5.0,82,0.00,,,0.00,Wunderground v.1.15,2013-07-12 04:45:00,
2013-07-12 00:50:00,65.3,59.7,29.97,NW,321,0.0,5.0,82,0.00,,,0.00,Wunderground v.1.15,2013-07-12 04:50:00,
2013-07-12 00:55:00,65.3,60.0,29.97,NW,321,0.0,5.0,83,0.00,,,0.00,Wunderground v.1.15,2013-07-12 04:55:00,
2013-07-12 01:00:00,65.3,59.7,29.97,NW,321,0.0,5.0,82,0.00,,,0.00,Wunderground v.1.15,2013-07-12 05:00:00,
2013-07-12 01:05:00,65.2,59.2,29.97,NW,323,0.0,5.0,81,0.00,,,0.00,Wunderground v.1.15,2013-07-12 05:05:00,
2013-07-12 01:10:00,65.2,59.2,29.97,NNW,330,0.0,5.0,81,0.00,,,0.00,Wunderground v.1.15,2013-07-12 05:10:00,
2013-07-12 01:20:00,65.1,59.1,29.98,NNW,330,0.0,5.0,81,0.00,,,0.00,Wunderground v.1.15,2013-07-12 05:20:00,
2013-07-12 01:25:00,65.1,59.1,29.98,North,355,0.0,5.0,81,0.00,,,0.00,Wunderground v.1.15,2013-07-12 05:25:00,
2013-07-12 01:30:00,65.2,59.6,29.98,North,355,0.0,5.0,82,0.00,,,0.00,Wunderground v.1.15,2013-07-12 05:30:00,
2013-07-12 01:35:00,65.2,59.2,29.98,North,5,0.0,5.0,81,0.00,,,0.00,Wunderground v.1.15,2013-07-12 05:35:00,
2013-07-12 01:40:00,65.2,59.2,29.98,North,5,0.0,5.0,81,0.00,,,0.00,Wunderground v.1.15,2013-07-12 05:40:00,
2013-07-12 01:45:00,65.1,59.5,29.98,North,5,0.0,5.0,82,0.00,,,0.00,Wunderground v.1.15,2013-07-12 05:45:00,
2013-07-12 01:55:00,65.2,59.2,29.98,North,360,0.0,5.0,81,0.00,,,0.00,Wunderground v.1.15,2013-07-12 05:55:00,
2013-07-12 02:00:00,65.3,59.3,29.98,North,355,0.0,5.0,81,0.00,,,0.00,Wunderground v.1.15,2013-07-12 06:00:00,
2013-07-12 02:05:00,65.4,59.4,29.98,North,355,0.0,5.0,81,0.00,,,0.00,Wunderground v.1.15,2013-07-12 06:05:00,
2013-07-12 02:10:00,65.4,59.4,29.98,NNE,15,0.0,5.0,81,0.00,,,0.00,Wunderground v.1.15,2013-07-12 06:10:00,
2013-07-12 02:15:00,65.4,59.4,29.98,North,360,0.0,5.0,81,0.00,,,0.00,Wunderground v.1.15,2013-07-12 06:15:00,
2013-07-12 02:20:00,65.4,59.4,29.98,ENE,74,0.0,5.0,81,0.00,,,0.00,Wunderground v.1.15,2013-07-12 06:20:00,
2013-07-12 02:30:00,65.4,59.4,29.99,North,5,0.0,5.0,81,0.00,,,0.00,Wunderground v.1.15,2013-07-12 06:30:00,
2013-07-12 02:35:00,65.4,59.1,29.99,North,5,0.0,5.0,80,0.00,,,0.00,Wunderground v.1.15,2013-07-12 06:35:00,
2013-07-12 02:40:00,65.4,59.4,29.99,NNW,327,0.0,5.0,81,0.00,,,0.00,Wunderground v.1.15,2013-07-12 06:40:00,
2013-07-12 02:45:00,65.5,59.2,29.99,North,9,0.0,5.0,80,0.00,,,0.00,Wunderground v.1.15,2013-07-12 06:45:00,
2013-07-12 02:50:00,65.4,59.1,29.99,North,9,0.0,5.0,80,0.00,,,0.00,Wunderground v.1.15,2013-07-12 06:50:00,
2013-07-12 02:55:00,65.5,59.5,29.99,North,5,0.0,5.0,81,0.00,,,0.00,Wunderground v.1.15,2013-07-12 06:55:00,
2013-07-12 03:00:00,65.5,59.2,29.99,North,5,0.0,5.0,80,0.00,,,0.00,Wunderground v.1.15,2013-07-12 07:00:00,
2013-07-12 03:10:00,65.5,59.2,29.99,North,11,0.0,5.0,80,0.00,,,0.00,Wunderground v.1.15,2013-07-12 07:10:00,
2013-07-12 03:15:00,65.4,59.1,30.00,North,9,0.0,5.0,80,0.00,,,0.00,Wunderground v.1.15,2013-07-12 07:15:00,
2013-07-12 03:20:00,65.3,59.0,30.00,North,9,0.0,5.0,80,0.00,,,0.00,Wunderground v.1.15,2013-07-12 07:20:00,
2013-07-12 03:25:00,65.3,59.0,30.00,North,9,0.0,5.0,80,0.00,,,0.00,Wunderground v.1.15,2013-07-12 07:25:00,
2013-07-12 03:30:00,65.2,58.9,30.00,SSE,165,0.0,5.0,80,0.00,,,0.00,Wunderground v.1.15,2013-07-12 07:30:00,
2013-07-12 03:35:00,65.1,59.1,30.00,SSE,165,0.0,5.0,81,0.00,,,0.00,Wunderground v.1.15,2013-07-12 07:35:00,
2013-07-12 05:05:00,63.8,58.5,30.03,NW,315,0.0,0.0,83,0.00,,,0.00,Wunderground v.1.15,2013-07-12 09:05:00,
2013-07-12 05:15:00,63.8,59.2,30.04,NW,315,0.0,0.0,85,0.00,,,0.00,Wunderground v.1.15,2013-07-12 09:15:00,
2013-07-12 05:20:00,63.8,59.2,30.04,NW,315,0.0,0.0,85,0.00,,,0.00,Wunderground v.1.15,2013-07-12 09:20:00,
2013-07-12 05:25:00,63.8,59.2,30.04,NW,315,0.0,0.0,85,0.00,,,0.00,Wunderground v.1.15,2013-07-12 09:25:00,
2013-07-12 05:35:00,63.9,58.3,30.04,WNW,296,0.0,0.0,82,0.00,,,0.00,Wunderground v.1.15,2013-07-12 09:35:00,
2013-07-12 05:40:00,64.0,58.7,30.05,WNW,296,0.0,0.0,83,0.00,,,0.00,Wunderground v.1.15,2013-07-12 09:40:00,
2013-07-12 05:45:00,64.1,58.8,30.05,WNW,296,0.0,0.0,83,0.00,,,0.00,Wunderground v.1.15,2013-07-12 09:45:00,
2013-07-12 05:50:00,64.2,58.9,30.05,WNW,296,0.0,0.0,83,0.00,,,0.00,Wunderground v.1.15,2013-07-12 09:50:00,
2013-07-12 05:55:00,64.3,59.0,30.05,WNW,296,0.0,0.0,83,0.00,,,0.00,Wunderground v.1.15,2013-07-12 09:55:00,
2013-07-12 06:00:00,64.3,59.4,30.05,WNW,296,0.0,0.0,84,0.00,,,0.00,Wunderground v.1.15,2013-07-12 10:00:00,
2013-07-12 06:05:00,64.3,59.0,30.06,WNW,296,0.0,0.0,83,0.00,,,0.00,Wunderground v.1.15,2013-07-12 10:05:00,
2013-07-12 06:15:00,64.3,59.4,30.06,WNW,296,0.0,0.0,84,0.00,,,0.00,Wunderground v.1.15,2013-07-12 10:15:00,
2013-07-12 06:20:00,64.2,59.6,30.06,WNW,296,0.0,0.0,85,0.00,,,0.00,Wunderground v.1.15,2013-07-12 10:20:00,
2013-07-12 06:25:00,64.2,59.9,30.07,WNW,296,0.0,0.0,86,0.00,,,0.00,Wunderground v.1.15,2013-07-12 10:25:00,
2013-07-12 06:30:00,64.2,59.9,30.07,WNW,296,0.0,0.0,86,0.00,,,0.00,Wunderground v.1.15,2013-07-12 10:30:00,
2013-07-12 06:35:00,64.2,59.9,30.07,WNW,296,0.0,0.0,86,0.00,,,0.00,Wunderground v.1.15,2013-07-12 10:35:00,
2013-07-12 06:40:00,64.3,59.7,30.07,WNW,296,0.0,0.0,85,0.00,,,0.00,Wunderground v.1.15,2013-07-12 10:40:00,
2013-07-12 06:50:00,64.5,60.2,30.08,WNW,296,0.0,0.0,86,0.00,,,0.00,Wunderground v.1.15,2013-07-12 10:50:00,
2013-07-12 06:55:00,64.7,60.4,30.08,WNW,296,0.0,0.0,86,0.00,,,0.00,Wunderground v.1.15,2013-07-12 10:55:00,
2013-07-12 07:00:00,64.8,60.2,30.08,WNW,296,0.0,0.0,85,0.00,,,0.00,Wunderground v.1.15,2013-07-12 11:00:00,
2013-07-12 07:05:00,64.9,60.3,30.08,WNW,296,0.0,0.0,85,0.00,,,0.00,Wunderground v.1.15,2013-07-12 11:05:00,
2013-07-12 07:10:00,65.1,60.8,30.08,WNW,296,0.0,0.0,86,0.00,,,0.00,Wunderground v.1.15,2013-07-12 11:10:00,
2013-07-12 07:15:00,65.2,60.2,30.08,WNW,296,0.0,0.0,84,0.00,,,0.00,Wunderground v.1.15,2013-07-12 11:15:00,
2013-07-12 07:20:00,65.4,60.4,30.08,WNW,296,0.0,0.0,84,0.00,,,0.00,Wunderground v.1.15,2013-07-12 11:20:00,
2013-07-12 07:30:00,65.8,60.5,30.08,North,360,0.0,0.0,83,0.00,,,0.00,Wunderground v.1.15,2013-07-12 11:30:00,
2013-07-12 07:35:00,66.0,61.0,30.08,North,360,0.0,0.0,84,0.00,,,0.00,Wunderground v.1.15,2013-07-12 11:35:00,
2013-07-12 07:40:00,66.1,61.1,30.08,North,360,0.0,0.0,84,0.00,,,0.00,Wunderground v.1.15,2013-07-12 11:40:00,
2013-07-12 07:45:00,66.3,61.0,30.08,North,360,0.0,0.0,83,0.00,,,0.00,Wunderground v.1.15,2013-07-12 11:45:00,
2013-07-12 07:50:00,66.5,61.2,30.08,North,360,0.0,0.0,83,0.00,,,0.00,Wunderground v.1.15,2013-07-12 11:50:00,
2013-07-12 07:55:00,66.6,61.3,30.08,North,360,0.0,0.0,83,0.00,,,0.00,Wunderground v.1.15,2013-07-12 11:55:00,
2013-07-12 08:00:00,66.8,61.8,30.08,North,360,0.0,0.0,84,0.00,,,0.00,Wunderground v.1.15,2013-07-12 12:00:00,
2013-07-12 08:05:00,67.0,61.7,30.09,North,360,0.0,0.0,83,0.00,,,0.00,Wunderground v.1.15,2013-07-12 12:05:00,
2013-07-12 08:15:00,67.2,61.5,30.09,North,360,0.0,0.0,82,0.00,,,0.00,Wunderground v.1.15,2013-07-12 12:15:00,
2013-07-12 08:20:00,67.5,61.8,30.09,North,360,0.0,0.0,82,0.00,,,0.00,Wunderground v.1.15,2013-07-12 12:20:00,
2013-07-12 08:25:00,67.7,62.0,30.09,North,360,0.0,0.0,82,0.00,,,0.00,Wunderground v.1.15,2013-07-12 12:25:00,
2013-07-12 08:30:00,68.0,61.9,30.09,North,360,0.0,0.0,81,0.00,,,0.00,Wunderground v.1.15,2013-07-12 12:30:00,
2013-07-12 08:35:00,68.3,61.9,30.09,North,5,0.0,0.0,80,0.00,,,0.00,Wunderground v.1.15,2013-07-12 12:35:00,
2013-07-12 08:40:00,68.6,62.5,30.09,North,5,0.0,0.0,81,0.00,,,0.00,Wunderground v.1.15,2013-07-12 12:40:00,
2013-07-12 08:45:00,68.9,62.1,30.09,North,5,0.0,0.0,79,0.00,,,0.00,Wunderground v.1.15,2013-07-12 12:45:00,
2013-07-12 08:55:00,69.5,63.8,30.09,North,5,0.0,0.0,82,0.00,,,0.00,Wunderground v.1.15,2013-07-12 12:55:00,
2013-07-12 09:00:00,69.7,62.2,30.09,NNE,19,0.0,0.0,77,0.00,,,0.00,Wunderground v.1.15,2013-07-12 13:00:00,
2013-07-12 09:05:00,69.8,63.3,30.09,NNE,19,0.0,0.0,80,0.00,,,0.00,Wunderground v.1.15,2013-07-12 13:05:00,
2013-07-12 09:10:00,69.8,63.0,30.09,NNE,24,0.0,0.0,79,0.00,,,0.00,Wunderground v.1.15,2013-07-12 13:10:00,
2013-07-12 09:15:00,69.9,62.7,30.09,NNE,24,0.0,0.0,78,0.00,,,0.00,Wunderground v.1.15,2013-07-12 13:15:00,
2013-07-12 09:20:00,70.0,63.5,30.09,NNE,24,0.0,0.0,80,0.00,,,0.00,Wunderground v.1.15,2013-07-12 13:20:00,
2013-07-12 09:25:00,70.1,62.9,30.08,NNE,24,0.0,0.0,78,0.00,,,0.00,Wunderground v.1.15,2013-07-12 13:25:00,
2013-07-12 09:35:00,70.5,63.7,30.09,NE,37,0.0,0.0,79,0.00,,,0.00,Wunderground v.1.15,2013-07-12 13:35:00,
2013-07-12 09:40:00,70.9,63.7,30.09,NE,37,0.0,0.0,78,0.00,,,0.00,Wunderground v.1.15,2013-07-12 13:40:00,
2013-07-12 09:45:00,71.2,63.2,30.09,NE,48,0.0,0.0,76,0.00,,,0.00,Wunderground v.1.15,2013-07-12 13:45:00,
2013-07-12 09:50:00,71.6,64.0,30.09,North,350,0.0,0.0,77,0.00,,,0.00,Wunderground v.1.15,2013-07-12 13:50:00,
2013-07-12 09:55:00,71.9,64.3,30.09,North,350,0.0,0.0,77,0.00,,,0.00,Wunderground v.1.15,2013-07-12 13:55:00,
2013-07-12 10:00:00,72.2,63.4,30.09,NE,44,0.0,0.0,74,0.00,,,0.00,Wunderground v.1.15,2013-07-12 14:00:00,
2013-07-12 10:10:00,73.1,64.7,30.09,NE,43,0.0,0.0,75,0.00,,,0.00,Wunderground v.1.15,2013-07-12 14:10:00,
2013-07-12 10:15:00,73.5,64.3,30.09,NE,43,0.0,0.0,73,0.00,,,0.00,Wunderground v.1.15,2013-07-12 14:15:00,
2013-07-12 10:20:00,74.0,63.2,30.09,NE,55,0.0,0.0,69,0.00,,,0.00,Wunderground v.1.15,2013-07-12 14:20:00,
2013-07-12 10:25:00,74.3,63.1,30.09,NE,55,0.0,0.0,68,0.00,,,0.00,Wunderground v.1.15,2013-07-12 14:25:00,
2013-07-12 10:30:00,74.7,64.7,30.09,NE,35,0.0,0.0,71,0.00,,,0.00,Wunderground v.1.15,2013-07-12 14:30:00,
2013-07-12 10:35:00,75.3,64.4,30.09,East,100,0.0,0.0,69,0.00,,,0.00,Wunderground v.1.15,2013-07-12 14:35:00,
2013-07-12 10:40:00,75.5,63.8,30.09,NE,40,0.0,0.0,67,0.00,,,0.00,Wunderground v.1.15,2013-07-12 14:40:00,
2013-07-12 10:50:00,75.4,64.1,30.10,ENE,61,0.0,0.0,68,0.00,,,0.00,Wunderground v.1.15,2013-07-12 14:50:00,
2013-07-12 10:55:00,75.3,64.0,30.10,ENE,74,0.0,0.0,68,0.00,,,0.00,Wunderground v.1.15,2013-07-12 14:55:00,
2013-07-12 11:00:00,75.2,63.9,30.10,ENE,66,0.0,0.0,68,0.00,,,0.00,Wunderground v.1.15,2013-07-12 15:00:00,
2013-07-12 11:05:00,75.2,64.3,30.10,ENE,66,0.0,0.0,69,0.00,,,0.00,Wunderground v.1.15,2013-07-12 15:05:00,
2013-07-12 11:10:00,75.2,64.7,30.10,ESE,107,0.0,0.0,70,0.00,,,0.00,Wunderground v.1.15,2013-07-12 15:10:00,
2013-07-12 11:20:00,75.2,64.7,30.10,NW,319,0.0,0.0,70,0.00,,,0.00,Wunderground v.1.15,2013-07-12 15:20:00,
2013-07-12 11:25:00,75.7,65.6,30.10,NW,319,0.0,0.0,71,0.00,,,0.00,Wunderground v.1.15,2013-07-12 15:25:00,
2013-07-12 11:30:00,76.3,66.6,30.10,ENE,63,0.0,0.0,72,0.00,,,0.00,Wunderground v.1.15,2013-07-12 15:30:00,
2013-07-12 11:40:00,76.9,66.4,30.10,NE,51,0.0,0.0,70,0.00,,,0.00,Wunderground v.1.15,2013-07-12 15:40:00,
2013-07-12 11:45:00,77.3,66.3,30.09,NE,51,0.0,0.0,69,0.00,,,0.00,Wunderground v.1.15,2013-07-12 15:45:00,
2013-07-12 11:50:00,77.5,65.2,30.09,ENE,75,0.0,0.0,66,0.00,,,0.00,Wunderground v.1.15,2013-07-12 15:50:00,
2013-07-12 12:00:00,77.7,66.3,30.09,SSE,162,0.0,0.0,68,0.00,,,0.00,Wunderground v.1.15,2013-07-12 16:00:00,
2013-07-12 12:05:00,78.1,66.7,30.09,NE,42,0.0,0.0,68,0.00,,,0.00,Wunderground v.1.15,2013-07-12 16:05:00,
2013-07-12 12:10:00,78.3,66.9,30.09,NNW,331,0.0,0.0,68,0.00,,,0.00,Wunderground v.1.15,2013-07-12 16:10:00,
2013-07-12 12:15:00,78.3,66.9,30.09,NNW,332,0.0,0.0,68,0.00,,,0.00,Wunderground v.1.15,2013-07-12 16:15:00,
2013-07-12 12:20:00,78.4,66.1,30.09,ENE,60,0.0,0.0,66,0.00,,,0.00,Wunderground v.1.15,2013-07-12 16:20:00,
2013-07-12 12:25:00,78.4,66.1,30.09,NE,44,0.0,0.0,66,0.00,,,0.00,Wunderground v.1.15,2013-07-12 16:25:00,
2013-07-12 12:30:00,78.6,65.8,30.09,NNE,19,0.0,0.0,65,0.00,,,0.00,Wunderground v.1.15,2013-07-12 16:30:00,
2013-07-12 12:40:00,79.2,66.9,30.09,ENE,63,0.0,0.0,66,0.00,,,0.00,Wunderground v.1.15,2013-07-12 16:40:00,
2013-07-12 12:45:00,79.4,65.2,30.09,North,11,0.0,0.0,62,0.00,,,0.00,Wunderground v.1.15,2013-07-12 16:45:00,
2013-07-12 12:50:00,79.7,67.8,30.09,NNE,26,0.0,0.0,67,0.00,,,0.00,Wunderground v.1.15,2013-07-12 16:50:00,
2013-07-12 12:55:00,79.9,66.6,30.09,NNE,27,0.0,0.0,64,0.00,,,0.00,Wunderground v.1.15,2013-07-12 16:55:00,
2013-07-12 13:00:00,80.1,68.6,30.08,NNE,27,0.0,0.0,68,0.00,,,0.00,Wunderground v.1.15,2013-07-12 17:00:00,
2013-07-12 13:05:00,80.4,67.1,30.08,NNW,340,0.0,0.0,64,0.00,,,0.00,Wunderground v.1.15,2013-07-12 17:05:00,
2013-07-12 13:15:00,80.6,67.7,30.09,ENE,61,0.0,0.0,65,0.00,,,0.00,Wunderground v.1.15,2013-07-12 17:15:00,
2013-07-12 13:20:00,80.7,69.2,30.09,NE,42,0.0,0.0,68,0.00,,,0.00,Wunderground v.1.15,2013-07-12 17:20:00,
2013-07-12 13:25:00,80.7,68.3,30.09,NNW,327,0.0,0.0,66,0.00,,,0.00,Wunderground v.1.15,2013-07-12 17:25:00,
2013-07-12 13:30:00,80.6,67.7,30.09,ENE,62,0.0,0.0,65,0.00,,,0.00,Wunderground v.1.15,2013-07-12 17:30:00,
2013-07-12 13:35:00,80.4,66.6,30.09,ENE,62,0.0,0.0,63,0.00,,,0.00,Wunderground v.1.15,2013-07-12 17:35:00,
2013-07-12 13:40:00,80.3,67.0,30.09,North,355,0.0,0.0,64,0.00,,,0.00,Wunderground v.1.15,2013-07-12 17:40:00,
2013-07-12 13:45:00,79.9,67.1,30.09,North,360,0.0,0.0,65,0.00,,,0.00,Wunderground v.1.15,2013-07-12 17:45:00,
2013-07-12 13:55:00,79.4,67.9,30.09,NNE,30,0.0,0.0,68,0.00,,,0.00,Wunderground v.1.15,2013-07-12 17:55:00,
2013-07-12 14:00:00,79.2,66.9,30.08,NE,37,0.0,0.0,66,0.00,,,0.00,Wunderground v.1.15,2013-07-12 18:00:00,
2013-07-12 14:05:00,79.7,67.8,30.08,NE,42,0.0,0.0,67,0.00,,,0.00,Wunderground v.1.15,2013-07-12 18:05:00,
2013-07-12 14:10:00,80.4,67.1,30.08,NE,39,0.0,0.0,64,0.00,,,0.00,Wunderground v.1.15,2013-07-12 18:10:00,
2013-07-12 14:15:00,81.0,67.2,30.08,NNE,14,0.0,0.0,63,0.00,,,0.00,Wunderground v.1.15,2013-07-12 18:15:00,
2013-07-12 14:20:00,81.1,68.2,30.08,ENE,65,0.0,0.0,65,0.00,,,0.00,Wunderground v.1.15,2013-07-12 18:20:00,
2013-07-12 14:30:00,81.7,67.4,30.08,North,360,0.0,0.0,62,0.00,,,0.00,Wunderground v.1.15,2013-07-12 18:30:00,
2013-07-12 14:35:00,81.8,68.4,30.08,East,86,0.0,0.0,64,0.00,,,0.00,Wunderground v.1.15,2013-07-12 18:35:00,
2013-07-12 14:40:00,81.6,67.8,30.08,ENE,76,0.0,0.0,63,0.00,,,0.00,Wunderground v.1.15,2013-07-12 18:40:00,
2013-07-12 14:45:00,81.4,68.9,30.08,ENE,76,0.0,0.0,66,0.00,,,0.00,Wunderground v.1.15,2013-07-12 18:45:00,
2013-07-12 14:55:00,81.1,67.8,30.08,East,82,0.0,0.0,64,0.00,,,0.00,Wunderground v.1.15,2013-07-12 18:55:00,
2013-07-12 15:00:00,80.9,68.5,30.08,NNE,14,0.0,0.0,66,0.00,,,0.00,Wunderground v.1.15,2013-07-12 19:00:00,
2013-07-12 15:10:00,81.4,68.1,30.08,NE,38,0.0,0.0,64,0.00,,,0.00,Wunderground v.1.15,2013-07-12 19:10:00,
2013-07-12 15:15:00,82.1,68.7,30.08,NE,42,0.0,0.0,64,0.00,,,0.00,Wunderground v.1.15,2013-07-12 19:15:00,
2013-07-12 15:20:00,82.4,69.9,30.08,NNW,348,0.0,0.0,66,0.00,,,0.00,Wunderground v.1.15,2013-07-12 19:20:00,
2013-07-12 15:25:00,82.0,67.2,30.08,NNE,30,0.0,0.0,61,0.00,,,0.00,Wunderground v.1.15,2013-07-12 19:25:00,
2013-07-12 15:30:00,81.2,67.9,30.08,ENE,58,0.0,0.0,64,0.00,,,0.00,Wunderground v.1.15,2013-07-12 19:30:00,
2013-07-12 15:35:00,80.7,68.3,30.07,ENE,58,0.0,0.0,66,0.00,,,0.00,Wunderground v.1.15,2013-07-12 19:35:00,
2013-07-12 15:45:00,80.5,69.0,30.08,ENE,64,0.0,0.0,68,0.00,,,0.00,Wunderground v.1.15,2013-07-12 19:45:00,
2013-07-12 15:50:00,80.7,69.2,30.07,ENE,65,0.0,0.0,68,0.00,,,0.00,Wunderground v.1.15,2013-07-12 19:50:00,
2013-07-12 15:55:00,81.1,68.2,30.07,NNE,28,0.0,0.0,65,0.00,,,0.00,Wunderground v.1.15,2013-07-12 19:55:00,
2013-07-12 16:05:00,81.7,69.2,30.07,ENE,70,0.0,0.0,66,0.00,,,0.00,Wunderground v.1.15,2013-07-12 20:05:00,
2013-07-12 16:10:00,82.2,70.1,30.07,ENE,76,0.0,0.0,67,0.00,,,0.00,Wunderground v.1.15,2013-07-12 20:10:00,
2013-07-12 16:15:00,82.5,69.1,30.07,ENE,75,0.0,0.0,64,0.00,,,0.00,Wunderground v.1.15,2013-07-12 20:15:00,
2013-07-12 16:25:00,82.5,69.1,30.07,NE,43,0.0,0.0,64,0.00,,,0.00,Wunderground v.1.15,2013-07-12 20:25:00,
2013-07-12 16:30:00,82.2,69.3,30.07,ENE,63,0.0,0.0,65,0.00,,,0.00,Wunderground v.1.15,2013-07-12 20:30:00,
2013-07-12 16:35:00,81.9,69.9,30.08,ENE,63,0.0,0.0,67,0.00,,,0.00,Wunderground v.1.15,2013-07-12 20:35:00,
2013-07-12 16:40:00,81.4,68.9,30.08,ENE,63,0.0,0.0,66,0.00,,,0.00,Wunderground v.1.15,2013-07-12 20:40:00,
2013-07-12 16:45:00,81.1,69.1,30.08,ENE,63,0.0,0.0,67,0.00,,,0.00,Wunderground v.1.15,2013-07-12 20:45:00,
2013-07-12 16:50:00,80.8,68.4,30.08,ENE,61,0.0,0.0,66,0.00,,,0.00,Wunderground v.1.15,2013-07-12 20:50:00,
2013-07-12 16:55:00,80.3,67.5,30.08,NE,49,0.0,0.0,65,0.00,,,0.00,Wunderground v.1.15,2013-07-12 20:55:00,
2013-07-12 17:00:00,79.9,69.2,30.08,NE,49,0.0,0.0,70,0.00,,,0.00,Wunderground v.1.15,2013-07-12 21:00:00,
2013-07-12 17:10:00,79.3,68.2,30.08,NE,49,0.0,0.0,69,0.00,,,0.00,Wunderground v.1.15,2013-07-12 21:10:00,
2013-07-12 17:15:00,79.0,69.2,30.08,NE,49,0.0,0.0,72,0.00,,,0.00,Wunderground v.1.15,2013-07-12 21:15:00,
2013-07-12 17:20:00,78.7,68.9,30.08,NE,49,0.0,0.0,72,0.00,,,0.00,Wunderground v.1.15,2013-07-12 21:20:00,
2013-07-12 17:30:00,78.4,67.8,30.08,NE,52,0.0,0.0,70,0.00,,,0.00,Wunderground v.1.15,2013-07-12 21:30:00,
2013-07-12 17:35:00,78.2,68.0,30.08,ENE,71,0.0,0.0,71,0.00,,,0.00,Wunderground v.1.15,2013-07-12 21:35:00,
2013-07-12 17:40:00,78.1,68.7,30.08,ENE,71,0.0,0.0,73,0.00,,,0.00,Wunderground v.1.15,2013-07-12 21:40:00,
2013-07-12 17:45:00,77.9,68.1,30.08,ENE,71,0.0,0.0,72,0.00,,,0.00,Wunderground v.1.15,2013-07-12 21:45:00,
2013-07-12 17:50:00,77.8,68.4,30.08,ENE,71,0.0,0.0,73,0.00,,,0.00,Wunderground v.1.15,2013-07-12 21:50:00,
2013-07-12 17:55:00,77.7,68.7,30.08,ENE,71,0.0,0.0,74,0.00,,,0.00,Wunderground v.1.15,2013-07-12 21:55:00,
2013-07-12 18:00:00,77.6,68.7,30.08,ENE,71,0.0,0.0,74,0.00,,,0.00,Wunderground v.1.15,2013-07-12 22:00:00,
2013-07-12 18:10:00,77.4,68.9,30.08,ENE,71,0.0,0.0,75,0.00,,,0.00,Wunderground v.1.15,2013-07-12 22:10:00,
2013-07-12 18:15:00,77.2,68.3,30.09,ENE,71,0.0,0.0,74,0.00,,,0.00,Wunderground v.1.15,2013-07-12 22:15:00,
2013-07-12 18:25:00,77.1,68.6,30.09,ENE,71,0.0,0.0,75,0.00,,,0.00,Wunderground v.1.15,2013-07-12 22:25:00,
2013-07-12 18:30:00,76.9,69.1,30.09,ENE,71,0.0,0.0,77,0.00,,,0.00,Wunderground v.1.15,2013-07-12 22:30:00,
2013-07-12 18:35:00,76.9,68.8,30.09,ENE,71,0.0,0.0,76,0.00,,,0.00,Wunderground v.1.15,2013-07-12 22:35:00,
2013-07-12 18:45:00,76.6,68.8,30.09,ENE,71,0.0,0.0,77,0.00,,,0.00,Wunderground v.1.15,2013-07-12 22:45:00,
2013-07-12 18:55:00,76.3,68.6,30.10,ENE,71,0.0,0.0,77,0.00,,,0.00,Wunderground v.1.15,2013-07-12 22:55:00,
2013-07-12 19:00:00,76.2,69.2,30.10,ENE,71,0.0,0.0,79,0.00,,,0.00,Wunderground v.1.15,2013-07-12 23:00:00,
2013-07-12 19:10:00,75.7,68.0,30.10,East,86,0.0,0.0,77,0.00,,,0.00,Wunderground v.1.15,2013-07-12 23:10:00,
2013-07-12 19:15:00,75.4,68.4,30.10,East,86,0.0,0.0,79,0.00,,,0.00,Wunderground v.1.15,2013-07-12 23:15:00,
2013-07-12 19:20:00,75.3,68.3,30.10,East,86,0.0,0.0,79,0.00,,,0.00,Wunderground v.1.15,2013-07-12 23:20:00,
2013-07-12 19:25:00,75.0,67.3,30.10,East,86,0.0,0.0,77,0.00,,,0.00,Wunderground v.1.15,2013-07-12 23:25:00,
2013-07-12 19:30:00,74.8,66.7,30.10,East,86,0.0,0.0,76,0.00,,,0.00,Wunderground v.1.15,2013-07-12 23:30:00,
2013-07-12 19:35:00,74.6,66.5,30.10,East,84,0.0,0.0,76,0.00,,,0.00,Wunderground v.1.15,2013-07-12 23:35:00,
2013-07-12 19:40:00,74.4,66.0,30.11,East,84,0.0,0.0,75,0.00,,,0.00,Wunderground v.1.15,2013-07-12 23:40:00,
2013-07-12 19:50:00,74.0,65.6,30.11,East,84,0.0,0.0,75,0.00,,,0.00,Wunderground v.1.15,2013-07-12 23:50:00,
2013-07-12 19:55:00,73.9,65.9,30.12,East,84,0.0,0.0,76,0.00,,,0.00,Wunderground v.1.15,2013-07-12 23:55:00,
2013-07-12 20:00:00,73.7,66.0,30.12,East,84,0.0,0.0,77,0.00,,,0.00,Wunderground v.1.15,2013-07-13 00:00:00,
2013-07-12 20:05:00,73.5,65.8,30.12,East,84,0.0,0.0,77,0.00,,,0.00,Wunderground v.1.15,2013-07-13 00:05:00,
2013-07-12 20:10:00,73.3,66.0,30.12,East,84,0.0,0.0,78,0.00,,,0.00,Wunderground v.1.15,2013-07-13 00:10:00,
2013-07-12 20:15:00,73.1,65.8,30.12,East,84,0.0,0.0,78,0.00,,,0.00,Wunderground v.1.15,2013-07-13 00:15:00,
2013-07-12 20:25:00,72.8,65.9,30.12,East,84,0.0,0.0,79,0.00,,,0.00,Wunderground v.1.15,2013-07-13 00:25:00,
2013-07-12 20:30:00,72.6,65.7,30.11,East,84,0.0,0.0,79,0.00,,,0.00,Wunderground v.1.15,2013-07-13 00:30:00,
2013-07-12 20:35:00,72.5,66.0,30.12,East,84,0.0,0.0,80,0.00,,,0.00,Wunderground v.1.15,2013-07-13 00:35:00,
2013-07-12 20:40:00,72.2,65.7,30.12,East,84,0.0,0.0,80,0.00,,,0.00,Wunderground v.1.15,2013-07-13 00:40:00,
2013-07-12 20:45:00,72.1,65.9,30.12,East,84,0.0,0.0,81,0.00,,,0.00,Wunderground v.1.15,2013-07-13 00:45:00,
2013-07-12 20:55:00,71.8,65.7,30.12,East,84,0.0,0.0,81,0.00,,,0.00,Wunderground v.1.15,2013-07-13 00:55:00,
2013-07-12 21:05:00,71.4,65.6,30.13,East,84,0.0,0.0,82,0.00,,,0.00,Wunderground v.1.15,2013-07-13 01:05:00,
2013-07-12 21:10:00,71.2,65.4,30.13,East,84,0.0,0.0,82,0.00,,,0.00,Wunderground v.1.15,2013-07-13 01:10:00,
2013-07-12 21:15:00,71.1,65.7,30.13,East,84,0.0,0.0,83,0.00,,,0.00,Wunderground v.1.15,2013-07-13 01:15:00,
2013-07-12 21:20:00,71.0,65.9,30.13,East,84,0.0,0.0,84,0.00,,,0.00,Wunderground v.1.15,2013-07-13 01:20:00,
2013-07-12 21:25:00,70.8,65.7,30.14,East,84,0.0,0.0,84,0.00,,,0.00,Wunderground v.1.15,2013-07-13 01:25:00,
2013-07-12 21:35:00,70.4,65.7,30.14,East,84,0.0,0.0,85,0.00,,,0.00,Wunderground v.1.15,2013-07-13 01:35:00,
2013-07-12 21:40:00,70.1,65.4,30.14,East,84,0.0,0.0,85,0.00,,,0.00,Wunderground v.1.15,2013-07-13 01:40:00,
2013-07-12 21:45:00,69.9,65.2,30.14,East,84,0.0,0.0,85,0.00,,,0.00,Wunderground v.1.15,2013-07-13 01:45:00,
2013-07-12 21:50:00,69.7,65.0,30.14,East,84,0.0,0.0,85,0.00,,,0.00,Wunderground v.1.15,2013-07-13 01:50:00,
2013-07-12 21:55:00,69.5,64.8,30.14,East,84,0.0,0.0,85,0.00,,,0.00,Wunderground v.1.15,2013-07-13 01:55:00,
2013-07-12 22:00:00,69.3,64.3,30.14,East,84,0.0,0.0,84,0.00,,,0.00,Wunderground v.1.15,2013-07-13 02:00:00,
2013-07-12 22:05:00,69.2,64.2,30.14,East,84,0.0,0.0,84,0.00,,,0.00,Wunderground v.1.15,2013-07-13 02:05:00,
2013-07-12 22:15:00,69.0,64.0,30.15,East,84,0.0,0.0,84,0.00,,,0.00,Wunderground v.1.15,2013-07-13 02:15:00,
2013-07-12 22:20:00,69.0,64.6,30.15,East,84,0.0,0.0,86,0.00,,,0.00,Wunderground v.1.15,2013-07-13 02:20:00,
2013-07-12 22:25:00,69.0,65.0,30.15,East,84,0.0,0.0,87,0.00,,,0.00,Wunderground v.1.15,2013-07-13 02:25:00,
2013-07-12 22:30:00,68.9,64.9,30.15,East,84,0.0,0.0,87,0.00,,,0.00,Wunderground v.1.15,2013-07-13 02:30:00,
2013-07-12 22:40:00,68.8,64.8,30.15,East,84,0.0,0.0,87,0.00,,,0.00,Wunderground v.1.15,2013-07-13 02:40:00,
2013-07-12 22:50:00,68.7,64.7,30.15,East,84,0.0,0.0,87,0.00,,,0.00,Wunderground v.1.15,2013-07-13 02:50:00,
2013-07-12 22:55:00,68.6,64.2,30.15,East,84,0.0,0.0,86,0.00,,,0.00,Wunderground v.1.15,2013-07-13 02:55:00,
2013-07-12 23:00:00,68.5,63.8,30.15,East,84,0.0,0.0,85,0.00,,,0.00,Wunderground v.1.15,2013-07-13 03:00:00,
2013-07-12 23:05:00,68.4,63.7,30.16,East,84,0.0,0.0,85,0.00,,,0.00,Wunderground v.1.15,2013-07-13 03:05:00,
2013-07-12 23:10:00,68.4,63.7,30.15,East,84,0.0,0.0,85,0.00,,,0.00,Wunderground v.1.15,2013-07-13 03:10:00,
2013-07-12 23:15:00,68.4,64.0,30.16,East,84,0.0,0.0,86,0.00,,,0.00,Wunderground v.1.15,2013-07-13 03:15:00,
2013-07-12 23:25:00,68.3,64.3,30.16,East,84,0.0,0.0,87,0.00,,,0.00,Wunderground v.1.15,2013-07-13 03:25:00,
2013-07-12 23:30:00,68.1,63.8,30.16,East,84,0.0,0.0,86,0.00,,,0.00,Wunderground v.1.15,2013-07-13 03:30:00,
2013-07-12 23:35:00,68.0,64.0,30.16,East,84,0.0,0.0,87,0.00,,,0.00,Wunderground v.1.15,2013-07-13 03:35:00,
2013-07-12 23:45:00,67.9,64.2,30.16,East,84,0.0,0.0,88,0.00,,,0.00,Wunderground v.1.15,2013-07-13 03:45:00,
2013-07-12 23:50:00,67.8,64.1,30.16,East,84,0.0,0.0,88,0.00,,,0.00,Wunderground v.1.15,2013-07-13 03:50:00,
2013-07-12 23:55:00,67.6,63.3,30.16,East,84,0.0,0.0,86,0.00,,,0.00,Wunderground v.1.15,2013-07-13 03:55:00,